Terminal Aerodrome Forecast
Issued by NWS Wilmington, NC

Home | Current Version | Previous Version | Text Only | Print | Product List | Glossary On
Versions: 1 2 3 4 5 6 7 8 9 10 11 12 13
000
FTUS42 KILM 242327
TAFLBT
TAF
KLBT 242327Z 2500/2524 VRB03KT P6SM FEW040 SCT250
     FM251000 00000KT P6SM BKN120
     FM251500 22008KT P6SM VCSH SCT025 BKN040
     FM251900 20011KT 6SM -RA VCTS SCT007 BKN015 BKN030CB=

USA.gov is the U.S. government's official web portal to all federal, state and local government web resources and services.